createdAt,value
2022-07-26T00:01:31.610Z,100640.56
2022-07-26T00:03:59.058Z,100643.06
2022-07-26T00:06:26.329Z,100648.47
2022-07-26T00:08:53.187Z,100646.16
2022-07-26T00:11:20.039Z,100641.28
2022-07-26T00:13:47.647Z,100645.75
2022-07-26T00:16:14.834Z,100642.59
2022-07-26T00:18:41.758Z,100647.25
2022-07-26T00:21:08.447Z,100642.69
2022-07-26T00:23:35.270Z,100640.88
2022-07-26T00:26:02.155Z,100646.25
2022-07-26T00:28:28.646Z,100643.75
2022-07-26T00:30:55.438Z,100640.06
2022-07-26T00:33:21.924Z,100643.50
2022-07-26T00:35:48.648Z,100645.88
2022-07-26T00:38:15.274Z,100636.31
2022-07-26T00:40:41.791Z,100639.41
2022-07-26T00:43:08.191Z,100638.41
2022-07-26T00:45:34.650Z,100645.91
2022-07-26T00:48:01.210Z,100649.81
2022-07-26T00:50:28.067Z,100655.44
2022-07-26T00:52:55.223Z,100658.75
2022-07-26T00:55:21.853Z,100659.66
2022-07-26T00:57:49.515Z,100653.34
2022-07-26T01:00:19.231Z,100665.66
2022-07-26T01:02:46.547Z,100662.69
2022-07-26T01:05:13.449Z,100659.50
2022-07-26T01:07:40.218Z,100659.19
2022-07-26T01:10:12.330Z,100647.03
2022-07-26T01:12:40.043Z,100656.50
2022-07-26T01:15:07.837Z,100659.81
2022-07-26T01:17:36.321Z,100661.00
2022-07-26T01:20:07.787Z,100663.69
2022-07-26T01:22:34.239Z,100656.38
2022-07-26T01:25:00.759Z,100662.78
2022-07-26T01:27:32.029Z,100659.97
2022-07-26T01:30:00.419Z,100658.94
2022-07-26T01:32:27.696Z,100654.13
2022-07-26T01:34:54.279Z,100651.41
2022-07-26T01:37:20.767Z,100650.47
2022-07-26T01:39:47.431Z,100656.91
2022-07-26T01:42:13.882Z,100655.09
2022-07-26T01:44:40.642Z,100658.41
2022-07-26T01:47:07.292Z,100653.63
2022-07-26T01:49:33.790Z,100663.16
2022-07-26T01:52:00.602Z,100664.00
2022-07-26T01:54:27.650Z,100660.06
2022-07-26T01:56:54.122Z,100659.28
2022-07-26T01:59:20.619Z,100663.16
2022-07-26T02:01:47.210Z,100668.00
2022-07-26T02:04:33.735Z,100666.69
2022-07-26T02:07:00.375Z,100668.34
2022-07-26T02:09:29.971Z,100668.28
2022-07-26T02:12:04.565Z,100671.53
2022-07-26T02:14:31.105Z,100667.47
2022-07-26T02:17:00.373Z,100664.00
2022-07-26T02:19:31.800Z,100672.53
2022-07-26T02:21:59.319Z,100667.41
2022-07-26T02:24:30.319Z,100680.09
2022-07-26T02:26:58.588Z,100677.09
2022-07-26T02:29:27.541Z,100675.88
2022-07-26T02:31:54.186Z,100674.44
2022-07-26T02:34:20.681Z,100674.25
2022-07-26T02:36:47.473Z,100672.38
2022-07-26T02:39:14.371Z,100676.06
2022-07-26T02:41:40.854Z,100678.22
2022-07-26T02:44:08.240Z,100681.44
2022-07-26T02:46:35.370Z,100682.94
2022-07-26T02:49:02.915Z,100687.31
2022-07-26T02:51:29.458Z,100679.53
2022-07-26T02:53:56.380Z,100683.59
2022-07-26T02:56:24.400Z,100678.28
2022-07-26T02:58:50.835Z,100682.66
2022-07-26T03:01:17.368Z,100683.31
2022-07-26T03:03:47.296Z,100679.59
2022-07-26T03:06:17.231Z,100675.19
2022-07-26T03:08:43.701Z,100687.31
2022-07-26T03:11:12.123Z,100689.59
2022-07-26T03:13:39.020Z,100687.13
2022-07-26T03:16:06.807Z,100681.34
2022-07-26T03:18:33.582Z,100696.06
2022-07-26T03:21:00.429Z,100690.31
2022-07-26T03:23:28.310Z,100690.44
2022-07-26T03:25:55.389Z,100692.50
2022-07-26T03:28:21.922Z,100682.66
2022-07-26T03:30:48.826Z,100688.97
2022-07-26T03:33:30.667Z,100689.13
2022-07-26T03:35:57.275Z,100689.78
2022-07-26T03:38:23.978Z,100696.81
2022-07-26T03:40:50.768Z,100699.22
2022-07-26T03:43:21.223Z,100706.69
2022-07-26T03:45:49.590Z,100698.91
2022-07-26T03:48:16.046Z,100706.97
2022-07-26T03:50:43.026Z,100698.44
2022-07-26T03:53:09.455Z,100708.94
2022-07-26T03:55:54.739Z,100704.41
2022-07-26T03:58:21.906Z,100704.50
2022-07-26T04:00:48.849Z,100704.69
2022-07-26T04:03:15.568Z,100709.91
2022-07-26T04:05:46.342Z,100703.59
2022-07-26T04:08:15.736Z,100717.19
2022-07-26T04:10:45.758Z,100710.19
2022-07-26T04:13:12.257Z,100708.88
2022-07-26T04:15:38.676Z,100700.28
2022-07-26T04:18:05.191Z,100704.31
2022-07-26T04:20:31.835Z,100714.06
2022-07-26T04:22:58.606Z,100722.38
2022-07-26T04:25:25.766Z,100721.28
2022-07-26T04:27:52.392Z,100719.03
2022-07-26T04:30:18.858Z,100721.59
2022-07-26T04:32:46.482Z,100717.25
2022-07-26T04:35:14.631Z,100722.22
2022-07-26T04:37:42.824Z,100716.91
2022-07-26T04:40:11.442Z,100722.91
2022-07-26T04:42:39.543Z,100728.59
2022-07-26T04:45:08.459Z,100723.41
2022-07-26T04:47:35.489Z,100722.84
2022-07-26T04:50:03.848Z,100715.78
2022-07-26T04:52:30.371Z,100720.00
2022-07-26T04:54:56.918Z,100723.72
2022-07-26T04:57:23.554Z,100722.22
2022-07-26T04:59:58.316Z,100711.69
2022-07-26T05:02:36.828Z,100709.06
2022-07-26T05:05:04.972Z,100711.81
2022-07-26T05:07:42.062Z,100711.50
2022-07-26T05:10:10.132Z,100712.09
2022-07-26T05:12:37.011Z,100707.06
2022-07-26T05:15:04.520Z,100713.22
2022-07-26T05:17:31.190Z,100712.53
2022-07-26T05:20:03.365Z,100718.22
2022-07-26T05:22:30.505Z,100719.47
2022-07-26T05:24:57.123Z,100723.03
2022-07-26T05:27:23.613Z,100722.59
2022-07-26T05:29:50.430Z,100722.94
2022-07-26T05:32:16.996Z,100716.31
2022-07-26T05:34:43.423Z,100725.97
2022-07-26T05:37:10.523Z,100732.59
2022-07-26T05:39:37.392Z,100738.59
2022-07-26T05:42:03.888Z,100735.41
2022-07-26T05:44:30.483Z,100732.13
2022-07-26T05:46:57.028Z,100738.59
2022-07-26T05:49:23.599Z,100738.06
2022-07-26T05:51:50.375Z,100737.84
2022-07-26T05:54:17.031Z,100747.25
2022-07-26T05:56:49.444Z,100745.34
2022-07-26T05:59:15.922Z,100751.31
2022-07-26T06:01:42.403Z,100755.91
2022-07-26T06:04:10.682Z,100744.16
2022-07-26T06:06:37.428Z,100752.56
2022-07-26T06:09:04.009Z,100740.63
2022-07-26T06:11:30.561Z,100750.28
2022-07-26T06:13:57.032Z,100741.47
2022-07-26T06:16:23.520Z,100751.19
2022-07-26T06:18:50.708Z,100756.91
2022-07-26T06:21:17.169Z,100764.44
2022-07-26T06:23:43.605Z,100761.94
2022-07-26T06:26:10.123Z,100753.69
2022-07-26T06:28:38.798Z,100757.44
2022-07-26T06:31:05.951Z,100758.78
2022-07-26T06:33:33.003Z,100762.97
2022-07-26T06:35:59.525Z,100763.81
2022-07-26T06:38:26.658Z,100761.97
2022-07-26T06:40:53.340Z,100758.13
2022-07-26T06:43:20.702Z,100771.75
2022-07-26T06:45:47.445Z,100763.31
2022-07-26T06:48:14.415Z,100766.53
2022-07-26T06:50:41.239Z,100779.03
2022-07-26T06:53:07.734Z,100769.28
2022-07-26T06:55:34.209Z,100768.19
2022-07-26T06:58:00.710Z,100762.63
2022-07-26T07:00:27.412Z,100768.41
2022-07-26T07:02:54.019Z,100765.91
2022-07-26T07:05:20.546Z,100756.97
2022-07-26T07:07:47.186Z,100765.13
2022-07-26T07:10:14.909Z,100764.72
2022-07-26T07:12:43.584Z,100761.97
2022-07-26T07:15:10.761Z,100761.78
2022-07-26T07:17:37.359Z,100755.16
2022-07-26T07:20:05.328Z,100758.13
2022-07-26T07:22:32.430Z,100762.34
2022-07-26T07:24:59.052Z,100752.59
2022-07-26T07:27:27.330Z,100761.53
2022-07-26T07:29:54.340Z,100756.25
2022-07-26T07:32:22.935Z,100766.41
2022-07-26T07:34:51.691Z,100769.50
2022-07-26T07:37:20.180Z,100762.25
2022-07-26T07:39:50.318Z,100764.41
2022-07-26T07:42:18.408Z,100770.72
2022-07-26T07:44:44.890Z,100775.16
2022-07-26T07:47:11.977Z,100780.69
2022-07-26T07:49:38.561Z,100778.59
2022-07-26T07:52:05.356Z,100798.88
2022-07-26T07:54:31.900Z,100789.66
2022-07-26T07:56:58.978Z,100788.28
2022-07-26T07:59:25.996Z,100795.56
2022-07-26T08:01:52.600Z,100796.25
2022-07-26T08:04:19.295Z,100804.34
2022-07-26T08:06:50.380Z,100814.44
2022-07-26T08:09:18.971Z,100816.69
2022-07-26T08:11:45.765Z,100849.03
2022-07-26T08:14:17.961Z,100851.75
2022-07-26T08:16:44.748Z,100855.53
2022-07-26T08:19:11.555Z,100856.94
2022-07-26T08:21:38.369Z,100850.25
2022-07-26T08:24:06.552Z,100871.13
2022-07-26T08:26:33.249Z,100866.72
2022-07-26T08:29:00.536Z,100872.31
2022-07-26T08:31:29.042Z,100889.06
2022-07-26T08:33:56.043Z,100881.06
2022-07-26T08:36:23.051Z,100890.25
2022-07-26T08:38:49.636Z,100890.69
2022-07-26T08:41:17.951Z,100890.41
2022-07-26T08:43:52.362Z,100904.09
2022-07-26T08:46:25.790Z,100896.75
2022-07-26T08:48:54.071Z,100894.22
2022-07-26T08:51:23.867Z,100903.53
2022-07-26T08:53:53.982Z,100902.63
2022-07-26T08:56:20.465Z,100912.50
2022-07-26T08:58:47.274Z,100920.25
2022-07-26T09:01:14.376Z,100923.53
2022-07-26T09:03:45.138Z,100925.19
2022-07-26T09:06:17.926Z,100933.66
2022-07-26T09:08:47.063Z,100935.09
2022-07-26T09:11:28.511Z,100939.63
2022-07-26T09:13:59.904Z,100943.56
2022-07-26T09:16:28.163Z,100953.25
2022-07-26T09:19:07.895Z,100954.75
2022-07-26T09:21:39.188Z,100948.41
2022-07-26T09:24:06.094Z,100946.47
2022-07-26T09:26:33.204Z,100949.06
2022-07-26T09:29:09.676Z,100950.16
2022-07-26T09:31:37.854Z,100940.72
2022-07-26T09:34:06.421Z,100940.63
2022-07-26T09:36:33.330Z,100946.19
2022-07-26T09:39:02.629Z,100962.50
2022-07-26T09:41:34.804Z,100967.88
2022-07-26T09:44:19.464Z,100965.94
2022-07-26T09:46:58.149Z,100954.47
2022-07-26T09:49:30.971Z,100958.97
2022-07-26T09:52:15.916Z,100969.34
2022-07-26T09:54:45.872Z,100964.00
2022-07-26T09:57:19.301Z,100965.47
2022-07-26T09:59:47.257Z,100966.09
2022-07-26T10:02:14.027Z,100974.34
2022-07-26T10:04:44.353Z,100977.94
2022-07-26T10:07:11.181Z,100985.22
2022-07-26T10:09:46.393Z,100984.72
2022-07-26T10:12:15.516Z,100991.38
2022-07-26T10:14:45.683Z,101002.56
2022-07-26T10:17:32.347Z,101014.59
2022-07-26T10:20:10.744Z,101010.44
2022-07-26T10:22:47.821Z,101018.84
2022-07-26T10:25:17.289Z,101015.81
2022-07-26T10:27:48.854Z,101028.38
2022-07-26T10:30:18.338Z,101026.97
2022-07-26T10:32:50.778Z,101022.22
2022-07-26T10:35:44.960Z,101026.19
2022-07-26T10:38:26.114Z,101032.03
2022-07-26T10:41:03.228Z,101028.66
2022-07-26T10:43:40.660Z,101026.78
2022-07-26T10:46:17.672Z,101034.00
2022-07-26T10:49:04.572Z,101025.28
2022-07-26T10:51:39.378Z,101020.47
2022-07-26T10:54:09.010Z,101025.56
2022-07-26T10:56:36.069Z,101022.47
2022-07-26T10:59:04.852Z,101028.84
2022-07-26T11:01:39.555Z,101038.00
2022-07-26T11:04:17.390Z,101043.31
2022-07-26T11:06:45.531Z,101050.94
2022-07-26T11:09:12.595Z,101049.09
2022-07-26T11:11:39.534Z,101049.28
2022-07-26T11:14:15.896Z,101043.44
2022-07-26T11:16:42.914Z,101054.41
2022-07-26T11:19:14.786Z,101061.50
2022-07-26T11:21:41.959Z,101058.94
2022-07-26T11:24:09.313Z,101059.59
2022-07-26T11:26:46.814Z,101057.84
2022-07-26T11:29:17.501Z,101047.13
2022-07-26T11:31:55.922Z,101046.84
2022-07-26T11:34:33.717Z,101050.47
2022-07-26T11:37:03.284Z,101053.72
2022-07-26T11:39:32.748Z,101044.72
2022-07-26T11:42:03.251Z,101051.78
2022-07-26T11:44:32.052Z,101054.53
2022-07-26T11:47:00.002Z,101058.75
2022-07-26T11:50:01.202Z,101052.38
2022-07-26T11:52:21.272Z,101067.59
2022-07-26T11:54:53.407Z,101067.81
2022-07-26T11:57:20.754Z,101065.03
2022-07-26T11:59:50.690Z,101073.56
2022-07-26T12:02:17.795Z,101075.88
2022-07-26T12:04:44.827Z,101071.03
2022-07-26T12:07:18.302Z,101071.47
2022-07-26T12:09:52.947Z,101070.06
2022-07-26T12:12:27.336Z,101077.53
2022-07-26T12:15:05.783Z,101085.97
2022-07-26T12:17:34.514Z,101083.41
2022-07-26T12:20:17.451Z,101077.63
2022-07-26T12:23:00.387Z,101076.84
2022-07-26T12:25:29.185Z,101078.75
2022-07-26T12:27:56.896Z,101076.63
2022-07-26T12:30:23.840Z,101078.94
2022-07-26T12:32:55.321Z,101070.94
2022-07-26T12:35:32.203Z,101074.78
2022-07-26T12:37:59.656Z,101062.22
2022-07-26T12:40:30.457Z,101066.75
2022-07-26T12:43:02.778Z,101074.47
2022-07-26T12:45:35.068Z,101073.00
2022-07-26T12:48:06.530Z,101066.19
2022-07-26T12:50:33.382Z,101063.69
2022-07-26T12:53:02.825Z,101061.53
2022-07-26T12:55:29.650Z,101064.44
2022-07-26T12:57:57.187Z,101066.41
2022-07-26T13:00:24.381Z,101074.59
2022-07-26T13:02:52.796Z,101069.72
2022-07-26T13:05:19.324Z,101072.25
2022-07-26T13:07:45.895Z,101085.50
2022-07-26T13:12:59.538Z,101101.09
2022-07-26T13:15:37.090Z,101109.59
2022-07-26T13:18:05.326Z,101109.59
2022-07-26T13:20:32.625Z,101110.69
2022-07-26T13:22:59.320Z,101111.69
2022-07-26T13:25:29.487Z,101119.16
2022-07-26T13:28:04.667Z,101119.31
2022-07-26T13:30:31.229Z,101115.44
2022-07-26T13:32:57.821Z,101113.63
2022-07-26T13:35:24.468Z,101115.22
2022-07-26T13:37:50.873Z,101118.13
2022-07-26T13:40:17.432Z,101118.25
2022-07-26T13:42:43.888Z,101111.00
2022-07-26T13:45:11.166Z,101117.16
2022-07-26T13:47:37.604Z,101123.06
2022-07-26T13:50:04.332Z,101113.91
2022-07-26T13:52:33.665Z,101119.28
2022-07-26T13:55:00.121Z,101120.63
2022-07-26T13:57:47.998Z,101132.63
2022-07-26T14:00:14.138Z,101123.16
2022-07-26T14:02:40.644Z,101130.09
2022-07-26T14:05:07.477Z,101127.59
2022-07-26T14:07:33.952Z,101122.41
2022-07-26T14:10:00.400Z,101136.53
2022-07-26T14:12:27.279Z,101132.16
2022-07-26T14:14:53.718Z,101130.22
2022-07-26T14:17:20.444Z,101129.72
2022-07-26T14:19:46.849Z,101136.72
2022-07-26T14:22:13.481Z,101131.66
2022-07-26T14:24:39.953Z,101130.78
2022-07-26T14:27:06.406Z,101140.53
2022-07-26T14:29:32.909Z,101133.09
2022-07-26T14:31:59.576Z,101133.06
2022-07-26T14:34:26.460Z,101138.00
2022-07-26T14:36:52.890Z,101139.66
2022-07-26T14:39:19.352Z,101141.16
2022-07-26T14:41:45.908Z,101149.44
2022-07-26T14:44:12.733Z,101146.88
2022-07-26T14:46:39.910Z,101147.16
2022-07-26T14:49:06.441Z,101154.00
2022-07-26T14:51:32.925Z,101149.03
2022-07-26T14:53:59.565Z,101150.53
2022-07-26T14:56:26.204Z,101149.94
2022-07-26T14:58:52.943Z,101154.16
2022-07-26T15:01:19.592Z,101151.34
2022-07-26T15:03:46.072Z,101148.13
2022-07-26T15:06:12.771Z,101156.88
2022-07-26T15:08:39.261Z,101154.31
2022-07-26T15:11:05.979Z,101152.72
2022-07-26T15:13:32.651Z,101161.84
2022-07-26T15:15:59.503Z,101165.66
2022-07-26T15:18:26.575Z,101163.84
2022-07-26T15:20:53.645Z,101172.97
2022-07-26T15:23:20.159Z,101169.75
2022-07-26T15:25:49.686Z,101171.72
2022-07-26T15:28:16.762Z,101167.66
2022-07-26T15:30:43.572Z,101173.19
2022-07-26T15:33:10.042Z,101175.81
2022-07-26T15:35:37.116Z,101173.75
2022-07-26T15:38:04.158Z,101172.72
2022-07-26T15:40:31.080Z,101168.69
2022-07-26T15:42:57.631Z,101177.78
2022-07-26T15:45:24.910Z,101175.81
2022-07-26T15:47:55.924Z,101166.44
2022-07-26T15:50:24.837Z,101175.34
2022-07-26T15:52:51.262Z,101166.41
2022-07-26T15:55:19.079Z,101162.84
2022-07-26T15:57:47.556Z,101164.13
2022-07-26T16:00:15.216Z,101159.13
2022-07-26T16:02:42.206Z,101169.63
2022-07-26T16:05:09.547Z,101178.03
2022-07-26T16:07:36.322Z,101173.03
2022-07-26T16:10:03.764Z,101173.69
2022-07-26T16:12:30.265Z,101165.09
2022-07-26T16:14:57.224Z,101162.03
2022-07-26T16:17:23.840Z,101162.03
2022-07-26T16:19:50.696Z,101166.88
2022-07-26T16:22:17.432Z,101159.44
2022-07-26T16:24:43.937Z,101160.03
2022-07-26T16:27:10.360Z,101158.09
2022-07-26T16:29:36.880Z,101161.19
2022-07-26T16:32:03.759Z,101151.56
2022-07-26T16:34:32.680Z,101155.88
2022-07-26T16:36:59.314Z,101156.47
2022-07-26T16:39:25.860Z,101158.97
2022-07-26T16:41:52.571Z,101153.31
2022-07-26T16:44:19.104Z,101153.13
2022-07-26T16:46:45.601Z,101149.75
2022-07-26T16:49:12.522Z,101152.34
2022-07-26T16:51:39.347Z,101149.34
2022-07-26T16:54:05.857Z,101156.63
2022-07-26T16:56:32.527Z,101155.69
2022-07-26T16:58:59.273Z,101151.81
2022-07-26T17:01:25.941Z,101153.75
2022-07-26T17:03:52.540Z,101152.91
2022-07-26T17:06:19.052Z,101151.75
2022-07-26T17:08:45.503Z,101152.72
2022-07-26T17:11:12.128Z,101151.00
2022-07-26T17:13:38.624Z,101149.53
2022-07-26T17:16:05.343Z,101152.78
2022-07-26T17:18:32.048Z,101154.09
2022-07-26T17:20:59.232Z,101149.06
2022-07-26T17:23:26.668Z,101146.47
2022-07-26T17:25:53.118Z,101150.19
2022-07-26T17:28:19.721Z,101144.97
2022-07-26T17:30:46.195Z,101151.16
2022-07-26T17:33:12.759Z,101160.88
2022-07-26T17:35:39.299Z,101156.69
2022-07-26T17:38:05.734Z,101158.47
2022-07-26T17:40:34.246Z,101159.78
2022-07-26T17:43:00.973Z,101154.28
2022-07-26T17:45:28.109Z,101158.34
2022-07-26T17:47:54.756Z,101159.81
2022-07-26T17:50:38.291Z,101162.56
2022-07-26T17:53:05.256Z,101157.34
2022-07-26T17:55:31.747Z,101170.50
2022-07-26T17:57:58.514Z,101156.88
2022-07-26T18:00:28.811Z,101160.63
2022-07-26T18:02:56.155Z,101158.19
2022-07-26T18:05:24.289Z,101161.75
2022-07-26T18:07:52.739Z,101167.91
2022-07-26T18:10:19.467Z,101162.56
2022-07-26T18:12:46.011Z,101173.41
2022-07-26T18:15:12.671Z,101174.84
2022-07-26T18:17:39.661Z,101178.56
2022-07-26T18:20:07.400Z,101184.53
2022-07-26T18:22:34.091Z,101187.22
2022-07-26T18:25:00.549Z,101183.31
2022-07-26T18:27:28.071Z,101178.63
2022-07-26T18:29:55.422Z,101178.47
2022-07-26T18:32:22.566Z,101181.84
2022-07-26T18:34:52.151Z,101182.53
2022-07-26T18:37:20.608Z,101176.34
2022-07-26T18:39:48.124Z,101179.41
2022-07-26T18:42:14.942Z,101174.75
2022-07-26T18:44:41.459Z,101178.78
2022-07-26T18:47:08.021Z,101179.56
2022-07-26T18:49:35.393Z,101185.06
2022-07-26T18:52:08.430Z,101188.44
2022-07-26T18:54:35.996Z,101176.28
2022-07-26T18:57:02.670Z,101182.59
2022-07-26T18:59:29.731Z,101186.47
2022-07-26T19:01:57.898Z,101187.88
2022-07-26T19:04:25.094Z,101197.56
2022-07-26T19:06:51.998Z,101197.59
2022-07-26T19:09:18.479Z,101192.41
2022-07-26T19:11:48.031Z,101200.81
2022-07-26T19:14:14.600Z,101203.53
2022-07-26T19:16:41.110Z,101199.28
2022-07-26T19:19:07.525Z,101202.84
2022-07-26T19:21:34.313Z,101200.09
2022-07-26T19:24:00.745Z,101204.16
2022-07-26T19:26:27.770Z,101208.66
2022-07-26T19:28:54.354Z,101213.47
2022-07-26T19:31:22.117Z,101224.72
2022-07-26T19:33:48.978Z,101222.41
2022-07-26T19:36:18.152Z,101227.72
2022-07-26T19:38:52.359Z,101222.34
2022-07-26T19:41:19.926Z,101231.41
2022-07-26T19:43:46.492Z,101237.94
2022-07-26T19:46:13.049Z,101234.59
2022-07-26T19:48:39.714Z,101246.31
2022-07-26T19:51:06.242Z,101239.47
2022-07-26T19:53:32.825Z,101253.94
2022-07-26T19:55:59.574Z,101251.78
2022-07-26T19:58:26.971Z,101261.38
2022-07-26T20:00:53.894Z,101260.38
2022-07-26T20:03:20.602Z,101253.38
2022-07-26T20:05:47.112Z,101262.63
2022-07-26T20:08:13.601Z,101269.34
2022-07-26T20:10:40.140Z,101267.31
2022-07-26T20:13:06.761Z,101274.44
2022-07-26T20:15:33.207Z,101270.38
2022-07-26T20:17:59.872Z,101267.69
2022-07-26T20:20:26.872Z,101282.16
2022-07-26T20:22:53.390Z,101274.13
2022-07-26T20:25:21.883Z,101273.91
2022-07-26T20:27:51.332Z,101269.00
2022-07-26T20:30:18.270Z,101286.81
2022-07-26T20:32:44.921Z,101289.75
2022-07-26T20:35:11.406Z,101283.00
2022-07-26T20:37:38.441Z,101281.59
2022-07-26T20:40:05.626Z,101285.25
2022-07-26T20:42:34.849Z,101282.50
2022-07-26T20:45:01.971Z,101282.19
2022-07-26T20:47:28.828Z,101284.59
2022-07-26T20:49:58.474Z,101291.00
2022-07-26T20:52:29.598Z,101283.16
2022-07-26T20:54:56.267Z,101287.59
2022-07-26T20:57:23.482Z,101285.44
2022-07-26T20:59:50.093Z,101297.56
2022-07-26T21:02:16.693Z,101291.38
2022-07-26T21:04:43.570Z,101292.16
2022-07-26T21:07:10.034Z,101297.09
2022-07-26T21:09:36.936Z,101305.19
2022-07-26T21:12:03.969Z,101313.94
2022-07-26T21:14:30.564Z,101311.75
2022-07-26T21:16:57.538Z,101314.91
2022-07-26T21:19:24.017Z,101313.06
2022-07-26T21:21:51.250Z,101308.16
2022-07-26T21:24:17.785Z,101301.88
2022-07-26T21:26:45.459Z,101303.22
2022-07-26T21:29:12.198Z,101309.06
2022-07-26T21:31:38.911Z,101323.59
2022-07-26T21:34:05.379Z,101311.34
2022-07-26T21:36:31.887Z,101311.44
2022-07-26T21:38:58.921Z,101315.06
2022-07-26T21:41:25.350Z,101316.75
2022-07-26T21:43:52.194Z,101314.09
2022-07-26T21:46:18.745Z,101325.50
2022-07-26T21:48:45.329Z,101330.16
2022-07-26T21:51:11.867Z,101323.91
2022-07-26T21:53:38.331Z,101324.88
2022-07-26T21:56:05.599Z,101322.72
2022-07-26T21:58:36.329Z,101329.53
2022-07-26T22:01:07.046Z,101333.00
2022-07-26T22:03:35.972Z,101331.69
2022-07-26T22:06:02.481Z,101325.50
2022-07-26T22:08:29.059Z,101328.03
2022-07-26T22:10:55.554Z,101336.09
2022-07-26T22:13:22.067Z,101337.66
2022-07-26T22:15:49.176Z,101345.66
2022-07-26T22:18:15.919Z,101337.09
2022-07-26T22:20:42.989Z,101334.16
2022-07-26T22:23:12.212Z,101329.63
2022-07-26T22:25:39.525Z,101342.19
2022-07-26T22:28:07.614Z,101336.22
2022-07-26T22:30:35.043Z,101338.44
2022-07-26T22:33:04.935Z,101336.78
2022-07-26T22:35:36.390Z,101340.34
2022-07-26T22:38:08.323Z,101335.91
2022-07-26T22:40:35.526Z,101342.19
2022-07-26T22:43:05.272Z,101338.78
2022-07-26T22:45:32.563Z,101340.44
2022-07-26T22:47:59.641Z,101335.19
2022-07-26T22:50:26.308Z,101334.75
2022-07-26T22:52:53.152Z,101338.53
2022-07-26T22:55:20.274Z,101337.13
2022-07-26T22:57:46.943Z,101337.75
2022-07-26T23:00:15.786Z,101337.53
2022-07-26T23:02:42.801Z,101349.06
2022-07-26T23:05:10.015Z,101339.53
2022-07-26T23:07:36.831Z,101342.88
2022-07-26T23:10:06.426Z,101343.47
2022-07-26T23:12:33.166Z,101344.78
2022-07-26T23:14:59.979Z,101341.25
2022-07-26T23:17:27.095Z,101342.13
2022-07-26T23:19:53.668Z,101346.31
2022-07-26T23:22:20.877Z,101342.78
2022-07-26T23:24:47.421Z,101340.34
2022-07-26T23:27:19.813Z,101338.72
2022-07-26T23:29:49.094Z,101339.59
2022-07-26T23:32:16.371Z,101346.09
2022-07-26T23:34:43.013Z,101346.66
2022-07-26T23:37:09.553Z,101353.22
2022-07-26T23:39:36.099Z,101348.78
2022-07-26T23:42:03.030Z,101342.28
2022-07-26T23:44:31.000Z,101346.31
2022-07-26T23:46:59.181Z,101341.09
2022-07-26T23:49:25.924Z,101342.13
2022-07-26T23:51:53.252Z,101349.34
2022-07-26T23:54:19.794Z,101346.91
2022-07-26T23:56:46.319Z,101357.56
2022-07-26T23:59:13.675Z,101356.84
